createdAt,value
2022-10-19T00:01:09.093Z,1.77
2022-10-19T00:03:36.422Z,1.65
2022-10-19T00:06:28.106Z,1.13
2022-10-19T00:09:05.848Z,1.90
2022-10-19T00:11:34.567Z,1.63
2022-10-19T00:14:02.136Z,1.73
2022-10-19T00:16:32.326Z,1.10
2022-10-19T00:19:01.229Z,1.35
2022-10-19T00:21:28.767Z,1.35
2022-10-19T00:23:55.904Z,1.50
2022-10-19T00:26:22.847Z,1.70
2022-10-19T00:28:50.282Z,1.33
2022-10-19T00:31:18.329Z,1.75
2022-10-19T00:33:47.152Z,1.38
2022-10-19T00:36:25.443Z,2.08
2022-10-19T00:38:53.646Z,1.65
2022-10-19T00:41:22.911Z,1.35
2022-10-19T00:43:52.417Z,1.65
2022-10-19T00:46:19.546Z,1.63
2022-10-19T00:48:46.608Z,1.33
2022-10-19T00:51:14.232Z,1.73
2022-10-19T00:53:41.775Z,1.85
2022-10-19T00:56:12.067Z,0.88
2022-10-19T00:58:39.892Z,0.98
2022-10-19T01:01:09.935Z,0.95
2022-10-19T01:03:37.084Z,1.02
2022-10-19T01:06:04.183Z,1.00
2022-10-19T01:08:31.305Z,1.33
2022-10-19T01:11:26.904Z,0.88
2022-10-19T01:14:18.665Z,1.10
2022-10-19T01:17:10.405Z,0.98
2022-10-19T01:20:07.926Z,1.10
2022-10-19T01:22:56.231Z,0.88
2022-10-19T01:25:54.010Z,1.10
2022-10-19T01:28:39.475Z,0.73
2022-10-19T01:31:28.055Z,0.98
2022-10-19T01:34:14.066Z,0.77
2022-10-19T01:37:05.934Z,1.42
2022-10-19T01:39:46.370Z,1.00
2022-10-19T01:42:19.732Z,0.98
2022-10-19T01:45:06.629Z,0.70
2022-10-19T01:47:41.906Z,1.02
2022-10-19T01:50:16.450Z,0.90
2022-10-19T01:52:43.971Z,0.70
2022-10-19T01:55:13.434Z,0.82
2022-10-19T01:57:54.288Z,0.82
2022-10-19T02:00:23.364Z,0.70
2022-10-19T02:02:52.629Z,0.75
2022-10-19T02:05:22.888Z,0.32
2022-10-19T02:07:53.489Z,0.70
2022-10-19T02:10:20.753Z,0.77
2022-10-19T02:12:48.404Z,0.82
2022-10-19T02:15:19.877Z,1.00
2022-10-19T02:17:50.224Z,1.00
2022-10-19T02:20:18.075Z,0.90
2022-10-19T02:22:45.171Z,0.77
2022-10-19T02:25:12.622Z,0.93
2022-10-19T02:27:43.502Z,0.70
2022-10-19T02:30:13.867Z,1.20
2022-10-19T02:32:41.405Z,0.77
2022-10-19T02:35:08.648Z,1.05
2022-10-19T02:40:04.950Z,0.70
2022-10-19T02:42:40.152Z,0.88
2022-10-19T02:45:33.896Z,0.50
2022-10-19T02:48:02.668Z,0.60
2022-10-19T02:50:29.763Z,0.60
2022-10-19T02:52:58.906Z,0.68
2022-10-19T02:55:26.007Z,0.55
2022-10-19T02:57:53.884Z,0.52
2022-10-19T03:00:20.880Z,0.70
2022-10-19T03:02:48.502Z,0.60
2022-10-19T03:05:15.557Z,0.60
2022-10-19T03:07:43.056Z,0.63
2022-10-19T03:10:10.225Z,0.50
2022-10-19T03:12:37.158Z,0.77
2022-10-19T03:15:04.788Z,1.05
2022-10-19T03:17:32.172Z,0.90
2022-10-19T03:19:59.405Z,0.80
2022-10-19T03:22:26.412Z,0.60
2022-10-19T03:24:53.341Z,0.85
2022-10-19T03:27:20.404Z,0.93
2022-10-19T03:29:47.545Z,0.77
2022-10-19T03:32:14.485Z,0.70
2022-10-19T03:34:41.620Z,0.60
2022-10-19T03:37:08.922Z,1.05
2022-10-19T03:39:35.931Z,1.13
2022-10-19T03:42:03.025Z,0.73
2022-10-19T03:44:29.931Z,0.63
2022-10-19T03:46:56.905Z,0.68
2022-10-19T03:49:23.953Z,0.57
2022-10-19T03:51:50.865Z,0.47
2022-10-19T03:54:18.024Z,0.70
2022-10-19T03:56:45.052Z,0.47
2022-10-19T03:59:14.650Z,0.52
2022-10-19T04:01:44.666Z,0.57
2022-10-19T04:04:14.749Z,0.60
2022-10-19T04:06:43.723Z,0.55
2022-10-19T04:09:13.553Z,0.50
2022-10-19T04:11:41.231Z,0.50
2022-10-19T04:16:35.573Z,0.75
2022-10-19T04:19:02.623Z,0.60
2022-10-19T04:21:37.465Z,0.90
2022-10-19T04:24:05.637Z,1.40
2022-10-19T04:26:33.785Z,0.60
2022-10-19T04:29:01.787Z,0.88
2022-10-19T04:31:29.087Z,0.47
2022-10-19T04:33:57.103Z,0.73
2022-10-19T04:36:24.345Z,0.60
2022-10-19T04:38:51.610Z,0.60
2022-10-19T04:41:20.544Z,0.50
2022-10-19T04:43:48.610Z,0.70
2022-10-19T04:46:18.186Z,2.13
2022-10-19T04:48:47.220Z,1.40
2022-10-19T04:51:15.304Z,0.80
2022-10-19T04:53:43.097Z,0.65
2022-10-19T04:56:17.432Z,0.50
2022-10-19T04:58:44.746Z,0.60
2022-10-19T05:01:16.651Z,0.85
2022-10-19T05:06:11.569Z,0.80
2022-10-19T05:08:38.892Z,0.60
2022-10-19T05:11:11.863Z,0.50
2022-10-19T05:13:39.314Z,0.70
2022-10-19T05:16:09.510Z,0.93
2022-10-19T05:18:37.744Z,0.90
2022-10-19T05:21:11.129Z,0.57
2022-10-19T05:23:39.734Z,0.73
2022-10-19T05:26:09.029Z,1.05
2022-10-19T05:28:37.038Z,0.52
2022-10-19T05:31:12.803Z,0.57
2022-10-19T05:33:40.356Z,0.70
2022-10-19T05:36:15.747Z,0.60
2022-10-19T05:38:43.717Z,0.77
2022-10-19T05:41:11.186Z,0.60
2022-10-19T05:43:38.191Z,0.70
2022-10-19T05:46:08.085Z,0.80
2022-10-19T05:48:36.382Z,0.70
2022-10-19T05:51:05.983Z,0.65
2022-10-19T05:53:33.484Z,0.63
2022-10-19T05:56:00.546Z,1.15
2022-10-19T05:58:27.887Z,0.68
2022-10-19T06:00:56.174Z,0.52
2022-10-19T06:03:23.804Z,0.80
2022-10-19T06:05:51.292Z,0.50
2022-10-19T06:08:19.578Z,0.50
2022-10-19T06:10:47.965Z,0.50
2022-10-19T06:13:15.630Z,0.60
2022-10-19T06:15:42.677Z,0.80
2022-10-19T06:18:11.051Z,0.70
2022-10-19T06:20:40.274Z,0.55
2022-10-19T06:23:08.321Z,0.75
2022-10-19T06:25:36.212Z,0.63
2022-10-19T06:28:03.848Z,0.63
2022-10-19T06:30:30.865Z,0.90
2022-10-19T06:32:59.191Z,1.08
2022-10-19T06:35:26.223Z,1.10
2022-10-19T06:37:53.162Z,1.52
2022-10-19T06:40:20.337Z,1.13
2022-10-19T06:42:47.423Z,1.00
2022-10-19T06:45:14.562Z,0.80
2022-10-19T06:47:41.595Z,1.00
2022-10-19T06:50:08.905Z,0.73
2022-10-19T06:52:36.591Z,0.73
2022-10-19T06:55:04.194Z,0.80
2022-10-19T06:57:31.391Z,0.47
2022-10-19T06:59:58.433Z,0.30
2022-10-19T07:02:25.415Z,0.40
2022-10-19T07:04:52.818Z,0.77
2022-10-19T07:07:19.897Z,0.57
2022-10-19T07:09:48.526Z,0.75
2022-10-19T07:12:15.551Z,1.38
2022-10-19T07:14:42.504Z,0.90
2022-10-19T07:17:11.768Z,0.85
2022-10-19T07:19:38.811Z,0.60
2022-10-19T07:22:05.941Z,0.40
2022-10-19T07:24:33.024Z,0.50
2022-10-19T07:27:00.039Z,0.50
2022-10-19T07:29:27.184Z,0.60
2022-10-19T07:31:54.344Z,0.52
2022-10-19T07:34:24.192Z,0.45
2022-10-19T07:36:54.938Z,0.50
2022-10-19T07:39:22.018Z,0.45
2022-10-19T07:41:49.220Z,0.60
2022-10-19T07:44:16.286Z,0.45
2022-10-19T07:46:43.443Z,0.60
2022-10-19T07:49:16.584Z,0.50
2022-10-19T07:51:43.822Z,0.50
2022-10-19T07:54:10.830Z,0.50
2022-10-19T07:56:37.925Z,0.60
2022-10-19T07:59:05.950Z,0.45
2022-10-19T08:01:35.342Z,0.60
2022-10-19T08:06:49.991Z,0.52
2022-10-19T08:09:47.458Z,0.70
2022-10-19T08:12:05.404Z,0.30
2022-10-19T08:14:33.223Z,0.70
2022-10-19T08:17:00.425Z,0.70
2022-10-19T08:19:27.805Z,0.55
2022-10-19T08:21:54.737Z,0.60
2022-10-19T08:24:22.067Z,0.90
2022-10-19T08:26:52.061Z,0.70
2022-10-19T08:29:23.776Z,0.50
2022-10-19T08:31:53.362Z,0.70
2022-10-19T08:34:20.317Z,0.60
2022-10-19T08:36:47.462Z,0.50
2022-10-19T08:39:14.970Z,0.50
2022-10-19T08:42:04.051Z,0.50
2022-10-19T08:44:55.646Z,0.65
2022-10-19T08:47:47.883Z,0.60
2022-10-19T08:52:46.382Z,0.63
2022-10-19T08:55:20.586Z,0.30
2022-10-19T08:58:26.162Z,0.70
2022-10-19T09:00:59.779Z,0.52
2022-10-19T09:04:00.113Z,0.50
2022-10-19T09:06:37.964Z,0.40
2022-10-19T09:09:05.713Z,0.40
2022-10-19T09:11:38.092Z,0.40
2022-10-19T09:14:07.232Z,0.50
2022-10-19T09:16:35.405Z,0.50
2022-10-19T09:19:03.982Z,0.52
2022-10-19T09:22:05.182Z,0.40
2022-10-19T09:24:37.870Z,0.57
2022-10-19T09:27:06.369Z,0.50
2022-10-19T09:29:41.085Z,0.50
2022-10-19T09:32:17.601Z,0.30
2022-10-19T09:34:57.303Z,0.40
2022-10-19T09:37:26.502Z,0.60
2022-10-19T09:39:55.881Z,0.85
2022-10-19T09:42:33.572Z,0.45
2022-10-19T09:45:06.862Z,0.55
2022-10-19T09:47:39.166Z,0.30
2022-10-19T09:50:16.143Z,0.25
2022-10-19T09:52:45.369Z,0.52
2022-10-19T09:55:15.922Z,0.30
2022-10-19T09:57:49.221Z,0.40
2022-10-19T10:00:32.703Z,0.57
2022-10-19T10:03:00.001Z,0.73
2022-10-19T10:05:36.145Z,0.45
2022-10-19T10:08:04.708Z,0.50
2022-10-19T10:10:38.511Z,0.40
2022-10-19T10:13:06.402Z,0.30
2022-10-19T10:15:57.042Z,0.30
2022-10-19T10:18:25.382Z,0.30
2022-10-19T10:21:15.445Z,0.40
2022-10-19T10:23:43.600Z,0.40
2022-10-19T10:26:20.165Z,0.40
2022-10-19T10:28:50.005Z,0.43
2022-10-19T10:31:22.507Z,0.45
2022-10-19T10:34:10.932Z,0.30
2022-10-19T10:36:51.463Z,0.40
2022-10-19T10:39:18.789Z,0.30
2022-10-19T10:41:47.782Z,0.30
2022-10-19T10:44:19.765Z,0.65
2022-10-19T10:46:56.244Z,0.45
2022-10-19T10:49:29.383Z,0.28
2022-10-19T10:52:13.102Z,0.50
2022-10-19T10:54:40.611Z,0.50
2022-10-19T10:57:13.957Z,0.32
2022-10-19T11:00:02.804Z,0.50
2022-10-19T11:02:51.485Z,0.70
2022-10-19T11:05:25.425Z,0.32
2022-10-19T11:08:30.331Z,0.50
2022-10-19T11:11:05.186Z,0.20
2022-10-19T11:13:43.362Z,0.55
2022-10-19T11:16:16.465Z,0.60
2022-10-19T11:18:54.171Z,0.70
2022-10-19T11:21:27.271Z,0.20
2022-10-19T11:23:55.725Z,0.30
2022-10-19T11:26:47.672Z,0.68
2022-10-19T11:29:36.066Z,0.40
2022-10-19T11:32:03.704Z,0.32
2022-10-19T11:34:56.774Z,0.40
2022-10-19T11:37:26.463Z,0.60
2022-10-19T11:40:05.979Z,0.40
2022-10-19T11:42:44.925Z,1.08
2022-10-19T11:45:36.865Z,0.90
2022-10-19T11:48:35.162Z,1.38
2022-10-19T11:51:21.029Z,0.40
2022-10-19T11:54:21.661Z,0.60
2022-10-19T11:57:11.365Z,0.75
2022-10-19T12:00:13.508Z,0.50
2022-10-19T12:03:03.866Z,0.20
2022-10-19T12:06:09.643Z,0.40
2022-10-19T12:09:21.818Z,0.70
2022-10-19T12:12:20.982Z,0.43
2022-10-19T12:14:51.683Z,0.50
2022-10-19T12:17:30.123Z,0.40
2022-10-19T12:20:01.932Z,0.35
2022-10-19T12:22:30.345Z,0.35
2022-10-19T12:25:01.732Z,0.40
2022-10-19T12:27:41.922Z,0.52
2022-10-19T12:30:13.882Z,0.63
2022-10-19T12:36:11.350Z,0.50
2022-10-19T12:38:44.012Z,0.70
2022-10-19T12:41:27.655Z,1.20
2022-10-19T12:44:26.904Z,0.65
2022-10-19T12:47:00.879Z,0.75
2022-10-19T12:49:30.826Z,0.47
2022-10-19T12:52:02.134Z,0.50
2022-10-19T12:54:31.782Z,0.57
2022-10-19T12:57:01.245Z,0.50
2022-10-19T12:59:32.102Z,0.50
2022-10-19T13:02:00.124Z,0.50
2022-10-19T13:04:32.603Z,0.40
2022-10-19T13:07:06.362Z,0.80
2022-10-19T13:09:36.464Z,0.43
2022-10-19T13:12:25.830Z,0.63
2022-10-19T13:15:00.986Z,0.57
2022-10-19T13:17:35.251Z,0.50
2022-10-19T13:22:59.532Z,0.40
2022-10-19T13:25:30.889Z,0.40
2022-10-19T13:28:08.072Z,0.30
2022-10-19T13:30:47.152Z,0.50
2022-10-19T13:33:29.360Z,0.43
2022-10-19T13:38:42.246Z,0.30
2022-10-19T13:41:21.338Z,0.40
2022-10-19T13:44:11.583Z,0.35
2022-10-19T13:46:55.722Z,0.40
2022-10-19T13:49:53.834Z,0.35
2022-10-19T13:52:31.220Z,0.40
2022-10-19T13:55:32.430Z,0.68
2022-10-19T13:58:18.141Z,0.60
2022-10-19T14:01:03.590Z,0.50
2022-10-19T14:03:49.210Z,0.40
2022-10-19T14:06:23.541Z,0.22
2022-10-19T14:09:11.370Z,0.50
2022-10-19T14:11:40.716Z,0.47
2022-10-19T14:14:17.168Z,0.40
2022-10-19T14:16:51.755Z,0.55
2022-10-19T14:19:43.721Z,0.50
2022-10-19T14:22:26.133Z,0.82
2022-10-19T14:25:07.819Z,0.30
2022-10-19T14:46:48.783Z,0.80
2022-10-19T14:49:15.977Z,0.77
2022-10-19T14:51:49.917Z,1.10
2022-10-19T14:54:39.298Z,1.10
2022-10-19T14:57:15.781Z,1.13
2022-10-19T14:59:46.455Z,1.10
2022-10-19T15:02:34.476Z,0.77
2022-10-19T15:05:04.595Z,1.00
2022-10-19T15:07:40.200Z,0.90
2022-10-19T15:10:36.409Z,1.23
2022-10-19T15:13:05.825Z,1.73
2022-10-19T15:15:34.894Z,2.20
2022-10-19T15:18:02.103Z,3.17
2022-10-19T15:20:44.025Z,2.33
2022-10-19T15:23:44.685Z,1.88
2022-10-19T15:26:20.230Z,2.67
2022-10-19T15:28:48.637Z,2.20
2022-10-19T15:31:17.744Z,2.10
2022-10-19T15:33:53.518Z,2.53
2022-10-19T15:36:22.200Z,2.33
2022-10-19T15:39:11.514Z,1.98
2022-10-19T15:41:48.575Z,1.85
2022-10-19T15:44:41.186Z,2.08
2022-10-19T15:47:20.290Z,1.83
2022-10-19T15:50:08.040Z,1.95
2022-10-19T15:52:35.210Z,3.35
2022-10-19T15:55:02.330Z,2.33
2022-10-19T15:57:35.330Z,1.85
2022-10-19T16:00:12.339Z,1.92
2022-10-19T16:02:39.519Z,1.73
2022-10-19T16:07:37.037Z,2.30
2022-10-19T16:10:04.572Z,3.03
2022-10-19T16:12:31.698Z,3.10
2022-10-19T16:14:58.821Z,3.25
2022-10-19T16:17:25.916Z,4.10
2022-10-19T16:19:52.846Z,4.50
2022-10-19T16:22:20.069Z,4.78
2022-10-19T16:24:47.238Z,5.10
2022-10-19T16:27:17.188Z,4.30
2022-10-19T16:29:44.996Z,4.65
2022-10-19T16:32:12.101Z,4.78
2022-10-19T16:34:39.298Z,4.18
2022-10-19T16:37:07.292Z,3.13
2022-10-19T16:39:35.318Z,3.38
2022-10-19T16:42:02.244Z,3.60
2022-10-19T16:44:29.474Z,3.60
2022-10-19T16:46:57.187Z,2.90
2022-10-19T16:49:24.370Z,3.00
2022-10-19T16:51:54.698Z,3.25
2022-10-19T16:54:26.615Z,3.45
2022-10-19T16:56:55.760Z,2.97
2022-10-19T16:59:22.804Z,4.72
2022-10-19T17:01:49.943Z,7.78
2022-10-19T17:04:20.198Z,3.65
2022-10-19T17:06:47.217Z,3.33
2022-10-19T17:12:01.579Z,4.38
2022-10-19T17:14:28.659Z,3.58
2022-10-19T17:16:55.630Z,3.88
2022-10-19T17:19:23.370Z,4.53
2022-10-19T17:21:50.566Z,3.92
2022-10-19T17:24:21.950Z,3.95
2022-10-19T17:26:53.331Z,9.75
2022-10-19T17:29:21.843Z,6.28
2022-10-19T17:31:51.887Z,5.78
2022-10-19T17:34:19.076Z,4.93
2022-10-19T17:36:47.066Z,4.50
2022-10-19T17:39:18.431Z,4.03
2022-10-19T17:41:47.659Z,5.05
2022-10-19T17:44:15.588Z,4.85
2022-10-19T17:46:43.076Z,5.10
2022-10-19T17:49:10.531Z,6.07
2022-10-19T17:51:38.876Z,5.63
2022-10-19T17:54:12.706Z,10.43
2022-10-19T17:56:41.122Z,13.02
2022-10-19T17:59:09.303Z,14.35
2022-10-19T18:01:37.745Z,16.65
2022-10-19T18:04:06.945Z,25.60
2022-10-19T18:06:36.939Z,27.00
2022-10-19T18:09:07.358Z,30.00
2022-10-19T18:11:39.507Z,27.83
2022-10-19T18:14:09.438Z,28.00
2022-10-19T18:16:41.189Z,23.40
2022-10-19T18:19:20.101Z,21.65
2022-10-19T18:21:59.318Z,22.55
2022-10-19T18:24:38.478Z,17.55
2022-10-19T18:27:15.986Z,19.98
2022-10-19T18:29:59.296Z,18.58
2022-10-19T18:32:36.097Z,24.83
2022-10-19T18:35:13.692Z,25.95
2022-10-19T18:37:48.528Z,17.10
2022-10-19T18:40:26.900Z,13.27
2022-10-19T18:43:08.363Z,8.63
2022-10-19T18:45:43.995Z,8.95
2022-10-19T18:48:18.995Z,9.70
2022-10-19T18:50:47.987Z,9.68
2022-10-19T18:53:15.317Z,12.60
2022-10-19T18:55:42.656Z,14.38
2022-10-19T18:58:10.173Z,12.70
2022-10-19T19:00:39.843Z,12.40
2022-10-19T19:05:35.889Z,15.60
2022-10-19T19:08:02.837Z,16.42
2022-10-19T19:10:29.953Z,16.13
2022-10-19T19:12:56.941Z,15.93
2022-10-19T19:15:24.020Z,14.40
2022-10-19T19:17:54.958Z,13.18
2022-10-19T19:20:22.006Z,10.00
2022-10-19T19:22:49.893Z,13.85
2022-10-19T19:25:18.451Z,11.23
2022-10-19T19:27:46.156Z,37.65
2022-10-19T19:30:14.094Z,17.90
2022-10-19T19:32:42.651Z,40.78
2022-10-19T19:35:11.620Z,17.48
2022-10-19T19:37:41.974Z,13.10
2022-10-19T19:40:10.760Z,10.60
2022-10-19T19:42:37.879Z,31.17
2022-10-19T19:45:05.248Z,10.57
2022-10-19T19:47:32.401Z,9.45
2022-10-19T19:49:59.547Z,7.63
2022-10-19T19:52:28.389Z,10.88
2022-10-19T19:54:56.164Z,10.90
2022-10-19T19:57:23.253Z,9.30
2022-10-19T19:59:53.052Z,10.85
2022-10-19T20:02:24.320Z,9.07
2022-10-19T20:04:53.856Z,10.73
2022-10-19T20:07:24.736Z,15.32
2022-10-19T20:09:54.938Z,16.77
2022-10-19T20:12:23.532Z,16.02
2022-10-19T20:14:52.871Z,12.27
2022-10-19T20:17:24.322Z,15.50
2022-10-19T20:19:53.749Z,10.32
2022-10-19T20:22:21.684Z,9.43
2022-10-19T20:24:48.772Z,8.90
2022-10-19T20:27:15.736Z,8.30
2022-10-19T20:29:45.556Z,7.72
2022-10-19T20:32:14.046Z,6.10
2022-10-19T20:34:41.607Z,6.95
2022-10-19T20:37:09.657Z,5.72
2022-10-19T20:39:37.033Z,7.15
2022-10-19T20:42:04.111Z,6.97
2022-10-19T20:44:31.217Z,6.75
2022-10-19T20:46:58.306Z,5.10
2022-10-19T20:49:25.276Z,5.40
2022-10-19T20:51:54.337Z,6.65
2022-10-19T20:54:21.304Z,6.57
2022-10-19T20:56:49.376Z,6.85
2022-10-19T20:59:18.837Z,10.73
2022-10-19T21:01:47.146Z,5.28
2022-10-19T21:04:14.657Z,7.38
2022-10-19T21:06:46.121Z,5.53
2022-10-19T21:09:15.184Z,5.93
2022-10-19T21:11:43.308Z,6.10
2022-10-19T21:14:16.670Z,6.50
2022-10-19T21:16:43.844Z,5.90
2022-10-19T21:19:13.441Z,6.70
2022-10-19T21:21:46.181Z,7.18
2022-10-19T21:24:19.028Z,8.13
2022-10-19T21:26:46.704Z,6.68
2022-10-19T21:29:15.522Z,7.45
2022-10-19T21:31:47.990Z,7.18
2022-10-19T21:34:19.158Z,8.63
2022-10-19T21:36:46.979Z,6.50
2022-10-19T21:39:14.178Z,7.40
2022-10-19T21:41:41.298Z,5.65
2022-10-19T21:44:08.745Z,7.25
2022-10-19T21:46:35.858Z,7.45
2022-10-19T21:49:02.817Z,9.98
2022-10-19T21:51:56.494Z,10.63
2022-10-19T21:54:25.166Z,11.30
2022-10-19T21:56:53.368Z,8.60
2022-10-19T21:59:20.517Z,7.07
2022-10-19T22:01:47.591Z,6.10
2022-10-19T22:04:16.679Z,4.90
2022-10-19T22:06:43.759Z,5.90
2022-10-19T22:09:14.132Z,3.65
2022-10-19T22:11:41.469Z,3.95
2022-10-19T22:14:08.508Z,3.90
2022-10-19T22:16:37.080Z,4.22
2022-10-19T22:19:05.664Z,3.90
2022-10-19T22:21:33.855Z,3.65
2022-10-19T22:24:07.150Z,4.05
2022-10-19T22:26:37.329Z,5.50
2022-10-19T22:29:05.558Z,4.05
2022-10-19T22:31:34.179Z,4.53
2022-10-19T22:34:02.353Z,4.40
2022-10-19T22:36:29.675Z,4.55
2022-10-19T22:38:56.851Z,4.68
2022-10-19T22:41:23.708Z,4.80
2022-10-19T22:43:50.654Z,4.40
2022-10-19T22:46:17.524Z,4.72
2022-10-19T22:48:44.468Z,4.88
2022-10-19T22:51:11.488Z,4.15
2022-10-19T22:53:38.403Z,4.72
2022-10-19T22:56:05.631Z,4.57
2022-10-19T22:58:32.526Z,5.43
2022-10-19T23:01:05.237Z,4.65
2022-10-19T23:03:32.400Z,4.03
2022-10-19T23:05:59.620Z,4.40
2022-10-19T23:08:26.775Z,4.32
2022-10-19T23:10:53.899Z,4.15
2022-10-19T23:13:20.984Z,3.97
2022-10-19T23:15:47.947Z,3.65
2022-10-19T23:18:15.039Z,3.83
2022-10-19T23:20:42.188Z,3.40
2022-10-19T23:23:09.786Z,3.33
2022-10-19T23:25:36.681Z,3.47
2022-10-19T23:28:03.718Z,3.53
2022-10-19T23:30:30.600Z,4.00
2022-10-19T23:32:57.583Z,3.75
2022-10-19T23:35:24.569Z,3.85
2022-10-19T23:37:51.505Z,4.22
2022-10-19T23:40:18.434Z,3.53
2022-10-19T23:42:45.467Z,3.33
2022-10-19T23:45:13.272Z,3.58
2022-10-19T23:47:40.176Z,3.22
2022-10-19T23:50:07.405Z,3.30
2022-10-19T23:52:34.355Z,3.30
2022-10-19T23:55:01.340Z,2.75
2022-10-19T23:57:28.218Z,4.05
2022-10-19T23:59:55.156Z,2.65
